Time;durP1;ratioP1;P1;durP2;ratioP2;P2;SDS_P1;SDS_P2;PMS_P1;PMS_P2;Temp;Humidity;BMP_temperature;BMP_pressure;BME280_temperature;BME280_humidity;BME280_pressure;Samples;Min_cycle;Max_cycle;Signal;HPM_P1;HPM_P2
2022/09/04 00:01:43;;;;;;;1.00;0.70;;;12.90;99.90;;;;;;5052792;28;20028;-71
2022/09/04 00:04:56;;;;;;;1.05;0.70;;;13.00;99.90;;;;;;5054247;28;20029;-71
2022/09/04 00:07:52;;;;;;;1.33;0.77;;;13.00;99.90;;;;;;5035355;28;20129;-71
2022/09/04 00:10:40;;;;;;;1.73;0.95;;;13.00;99.90;;;;;;5053547;28;20112;-70
2022/09/04 00:13:18;;;;;;;1.48;0.80;;;13.00;99.90;;;;;;5053872;28;20542;-71
2022/09/04 00:15:52;;;;;;;1.27;0.80;;;13.00;99.90;;;;;;5052551;28;20039;-71
2022/09/04 00:18:43;;;;;;;1.60;0.93;;;13.00;99.90;;;;;;5053775;28;20021;-71
2022/09/04 00:21:20;;;;;;;1.15;0.80;;;12.90;99.90;;;;;;5053446;28;20029;-70
2022/09/04 00:24:09;;;;;;;1.40;0.73;;;12.90;99.90;;;;;;5053657;28;20024;-71
2022/09/04 00:26:54;;;;;;;1.10;0.70;;;12.90;99.90;;;;;;5053902;28;20044;-71
2022/09/04 00:29:22;;;;;;;1.20;0.80;;;12.90;99.90;;;;;;5052218;28;20384;-71
2022/09/04 00:31:57;;;;;;;1.40;0.80;;;12.90;99.90;;;;;;5053498;28;20493;-71
2022/09/04 00:34:31;;;;;;;2.90;1.40;;;12.80;99.90;;;;;;5053315;28;20028;-71
2022/09/04 00:37:03;;;;;;;1.95;1.13;;;12.80;99.90;;;;;;5052224;28;20033;-71
2022/09/04 00:39:38;;;;;;;1.63;1.00;;;12.70;99.90;;;;;;5053705;28;20354;-71
2022/09/04 00:42:11;;;;;;;2.13;1.00;;;12.60;99.90;;;;;;5053307;28;20021;-71
2022/09/04 00:45:07;;;;;;;1.80;1.00;;;12.50;99.90;;;;;;5053926;28;20032;-71
2022/09/04 00:47:47;;;;;;;1.70;0.90;;;12.50;99.90;;;;;;5053121;28;20044;-71
2022/09/04 00:50:39;;;;;;;1.40;0.90;;;12.40;99.90;;;;;;5053346;28;20428;-71
2022/09/04 00:53:14;;;;;;;1.85;1.08;;;12.50;99.90;;;;;;5053855;28;20120;-71
2022/09/04 00:55:46;;;;;;;1.45;0.80;;;12.50;99.90;;;;;;5053272;28;20025;-71
2022/09/04 00:58:36;;;;;;;2.42;1.40;;;12.60;99.90;;;;;;5051941;28;20043;-71
2022/09/04 01:01:02;;;;;;;3.35;1.20;;;12.60;99.90;;;;;;5053231;28;20051;-71
2022/09/04 01:03:40;;;;;;;2.35;1.25;;;12.60;99.90;;;;;;5074352;22;20061;-84
2022/09/04 01:06:15;;;;;;;3.97;1.40;;;12.50;99.90;;;;;;5056948;28;20033;-84
2022/09/04 01:09:10;;;;;;;1.90;1.25;;;12.50;99.90;;;;;;5058416;28;20028;-83
2022/09/04 01:12:24;;;;;;;2.30;1.33;;;12.50;99.90;;;;;;5059893;28;20033;-83
2022/09/04 01:15:13;;;;;;;2.28;1.40;;;12.60;99.90;;;;;;4965538;28;20023;-83
2022/09/04 01:18:06;;;;;;;2.50;1.42;;;12.60;99.90;;;;;;4982224;28;20027;-83
2022/09/04 01:21:09;;;;;;;2.70;1.80;;;12.70;99.90;;;;;;5031076;28;20101;-83
2022/09/04 01:23:51;;;;;;;2.70;1.48;;;12.70;99.90;;;;;;5041445;28;20036;-83
2022/09/04 01:26:49;;;;;;;3.03;2.08;;;12.80;99.90;;;;;;5042632;28;20481;-83
2022/09/04 01:29:50;;;;;;;3.45;2.20;;;12.80;99.90;;;;;;5042287;28;20051;-83
2022/09/04 01:32:36;;;;;;;3.30;2.10;;;12.70;99.90;;;;;;4961933;28;20031;-83
2022/09/04 01:35:02;;;;;;;2.63;1.60;;;12.50;99.90;;;;;;5031077;28;20037;-83
2022/09/04 01:37:58;;;;;;;2.97;1.90;;;12.40;99.90;;;;;;5040010;28;20029;-84
2022/09/04 01:40:34;;;;;;;6.13;2.05;;;12.40;99.90;;;;;;5042154;28;20026;-83
2022/09/04 01:43:10;;;;;;;2.95;1.85;;;12.30;99.90;;;;;;5040270;28;20024;-83
2022/09/04 01:45:41;;;;;;;3.35;2.00;;;12.30;99.90;;;;;;5041984;28;20097;-83
2022/09/04 01:48:09;;;;;;;;;;;12.30;99.90;;;;;;5042045;28;20025;-83
2022/09/04 01:50:37;;;;;;;2.67;1.70;;;12.20;99.90;;;;;;5041705;28;19927;-83
2022/09/04 01:53:16;;;;;;;4.22;1.95;;;12.20;99.90;;;;;;5041263;28;20025;-83
2022/09/04 01:56:03;;;;;;;2.60;1.48;;;12.20;99.90;;;;;;5040828;28;20017;-83
2022/09/04 01:58:49;;;;;;;3.72;1.42;;;12.10;99.90;;;;;;5041379;28;20033;-83
2022/09/04 02:01:38;;;;;;;2.90;1.95;;;12.00;99.90;;;;;;5041545;28;20026;-83
2022/09/04 02:04:15;;;;;;;2.88;2.13;;;11.90;99.90;;;;;;5040855;28;20033;-84
2022/09/04 02:06:43;;;;;;;2.30;1.55;;;11.90;99.90;;;;;;5039359;28;20028;-83
2022/09/04 02:09:18;;;;;;;2.90;1.60;;;11.90;99.90;;;;;;5040033;28;20393;-83
2022/09/04 02:11:52;;;;;;;1.90;1.33;;;11.90;99.90;;;;;;5041353;28;20026;-83
2022/09/04 02:14:33;;;;;;;1.75;1.17;;;11.90;99.90;;;;;;5039639;28;20032;-83
2022/09/04 02:17:22;;;;;;;2.15;1.45;;;11.90;99.90;;;;;;5033625;28;20108;-83
2022/09/04 02:20:23;;;;;;;2.63;1.67;;;11.90;99.90;;;;;;5037886;28;20087;-83
2022/09/04 02:23:20;;;;;;;3.17;2.53;;;11.90;99.90;;;;;;5040516;28;20026;-83
2022/09/04 02:26:02;;;;;;;4.28;3.88;;;11.90;99.90;;;;;;5040134;28;20026;-83
2022/09/04 02:28:46;;;;;;;5.38;2.97;;;11.90;99.90;;;;;;5039829;28;20100;-83
2022/09/04 02:31:37;;;;;;;4.47;2.60;;;11.80;99.90;;;;;;5039836;28;20528;-83
2022/09/04 02:34:10;;;;;;;2.58;1.70;;;11.80;99.90;;;;;;5040102;28;20043;-83
2022/09/04 02:36:46;;;;;;;3.00;2.00;;;11.70;99.90;;;;;;5040550;28;20029;-83
2022/09/04 02:39:30;;;;;;;4.78;2.10;;;11.80;99.90;;;;;;5040341;28;20026;-83
2022/09/04 02:42:18;;;;;;;3.95;2.25;;;11.70;99.90;;;;;;5040457;28;20024;-83
2022/09/04 02:44:52;;;;;;;3.03;2.13;;;11.70;99.90;;;;;;5039629;28;20091;-83
2022/09/04 02:47:21;;;;;;;2.65;1.73;;;11.80;99.90;;;;;;5039728;28;20017;-83
2022/09/04 02:50:20;;;;;;;3.45;2.03;;;11.80;99.90;;;;;;5033825;28;20014;-83
2022/09/04 02:52:58;;;;;;;2.75;1.70;;;11.80;99.90;;;;;;5040137;28;20559;-83
2022/09/04 02:55:29;;;;;;;3.17;1.98;;;11.90;99.90;;;;;;5034657;28;20029;-83
2022/09/04 02:58:26;;;;;;;3.13;1.85;;;11.80;99.90;;;;;;5038865;28;20017;-83
2022/09/04 03:01:11;;;;;;;3.35;1.85;;;11.80;99.90;;;;;;5038339;28;21326;-84
2022/09/04 03:04:04;;;;;;;5.75;2.33;;;11.80;99.90;;;;;;5038712;28;20519;-84
2022/09/04 03:07:09;;;;;;;2.10;1.15;;;11.70;99.90;;;;;;5040331;28;20378;-83
2022/09/04 03:09:50;;;;;;;1.55;0.95;;;11.70;99.90;;;;;;5039184;28;20021;-83
2022/09/04 03:12:42;;;;;;;2.35;1.30;;;11.60;99.90;;;;;;5037458;28;20076;-83
2022/09/04 03:15:58;;;;;;;2.35;1.15;;;11.50;99.90;;;;;;5034507;28;20068;-84
2022/09/04 03:18:33;;;;;;;1.85;1.20;;;11.50;99.90;;;;;;4997565;28;20035;-83
2022/09/04 03:21:19;;;;;;;2.15;1.30;;;11.40;99.90;;;;;;5033830;28;20390;-83
2022/09/04 03:23:49;;;;;;;2.40;1.15;;;11.30;99.90;;;;;;5039687;28;20025;-83
2022/09/04 03:26:37;;;;;;;3.30;1.83;;;11.30;99.90;;;;;;5039031;28;20013;-83
2022/09/04 03:29:09;;;;;;;3.13;1.58;;;11.20;99.90;;;;;;5037286;28;20025;-83
2022/09/04 03:31:46;;;;;;;3.50;1.60;;;11.20;99.90;;;;;;5038015;28;20045;-84
2022/09/04 03:34:18;;;;;;;3.85;2.10;;;11.20;99.90;;;;;;5038504;28;20144;-83
2022/09/04 03:37:17;;;;;;;3.92;1.77;;;11.20;99.90;;;;;;5039709;28;20048;-83
2022/09/04 03:39:51;;;;;;;3.17;1.83;;;11.20;99.90;;;;;;5034980;28;20104;-84
2022/09/04 03:42:17;;;;;;;2.85;1.75;;;11.20;99.90;;;;;;5037480;28;20030;-83
2022/09/04 03:45:16;;;;;;;3.25;1.95;;;11.20;99.90;;;;;;5038279;28;20032;-83
2022/09/04 03:48:00;;;;;;;3.63;2.05;;;11.20;99.90;;;;;;5039167;28;20165;-83
2022/09/04 03:50:49;;;;;;;3.33;2.10;;;11.30;99.90;;;;;;5039038;28;20097;-83
2022/09/04 03:53:27;;;;;;;3.80;1.77;;;11.20;99.90;;;;;;5038572;28;20370;-83
2022/09/04 03:56:05;;;;;;;2.75;1.90;;;11.20;99.90;;;;;;5038576;28;20057;-84
2022/09/04 03:58:49;;;;;;;3.22;1.98;;;11.20;99.90;;;;;;5034065;28;20053;-83
2022/09/04 04:01:51;;;;;;;5.95;2.53;;;11.20;99.90;;;;;;5039567;28;20029;-83
2022/09/04 04:04:23;;;;;;;3.28;2.00;;;11.20;99.90;;;;;;5037508;28;20092;-83
2022/09/04 04:07:08;;;;;;;4.10;2.35;;;11.20;99.90;;;;;;5039396;28;20436;-83
2022/09/04 04:10:05;;;;;;;3.88;2.33;;;11.20;99.90;;;;;;5039085;28;20045;-83
2022/09/04 04:12:55;;;;;;;3.97;2.47;;;11.30;99.90;;;;;;5022368;28;20064;-83
2022/09/04 04:15:43;;;;;;;4.72;2.67;;;11.40;99.90;;;;;;5037778;28;20385;-83
2022/09/04 04:18:28;;;;;;;4.60;2.92;;;11.50;99.90;;;;;;5034010;28;20025;-83
2022/09/04 04:21:09;;;;;;;4.30;2.28;;;11.60;99.90;;;;;;5038313;28;20044;-83
2022/09/04 04:24:00;;;;;;;5.55;3.53;;;11.70;99.90;;;;;;5037120;28;20022;-83
2022/09/04 04:27:03;;;;;;;5.18;2.47;;;11.70;99.90;;;;;;5037257;28;20047;-83
2022/09/04 04:29:40;;;;;;;4.38;2.30;;;11.70;99.90;;;;;;5037166;28;20433;-83
2022/09/04 04:32:27;;;;;;;4.70;2.10;;;11.70;99.90;;;;;;5038045;28;20493;-83
2022/09/04 04:35:14;;;;;;;4.63;2.70;;;11.60;99.90;;;;;;5037648;28;20032;-83
2022/09/04 04:37:59;;;;;;;4.22;2.35;;;11.60;99.90;;;;;;5038600;28;20420;-83
2022/09/04 04:40:46;;;;;;;3.15;2.03;;;11.50;99.90;;;;;;5038038;28;20029;-83
2022/09/04 04:43:40;;;;;;;3.63;2.13;;;11.60;99.90;;;;;;5037610;28;20033;-83
2022/09/04 04:46:35;;;;;;;4.60;2.70;;;11.60;99.90;;;;;;5038404;28;20028;-83
2022/09/04 04:49:11;;;;;;;6.90;3.60;;;11.70;99.90;;;;;;5037497;28;20095;-84
2022/09/04 04:51:58;;;;;;;5.45;3.38;;;11.70;99.90;;;;;;5037558;28;20022;-87
2022/09/04 04:55:05;;;;;;;5.03;3.10;;;11.70;99.90;;;;;;5037748;28;20025;-87
2022/09/04 04:57:52;;;;;;;5.25;3.03;;;11.60;99.90;;;;;;5052802;28;20029;-87
2022/09/04 05:00:26;;;;;;;4.32;2.90;;;11.60;99.90;;;;;;5038787;28;20117;-87
2022/09/04 05:03:15;;;;;;;5.72;3.45;;;11.50;99.90;;;;;;5039094;28;20512;-87
2022/09/04 05:06:06;;;;;;;4.88;3.10;;;11.60;99.90;;;;;;5037564;28;20061;-87
2022/09/04 05:08:56;;;;;;;4.43;2.78;;;11.60;99.90;;;;;;5039569;28;20092;-87
2022/09/04 05:11:24;;;;;;;4.63;2.80;;;11.60;99.90;;;;;;5038917;28;20474;-87
2022/09/04 05:13:53;;;;;;;5.18;2.85;;;11.60;99.90;;;;;;5037446;28;20112;-87
2022/09/04 05:16:59;;;;;;;4.85;3.17;;;11.70;99.90;;;;;;5038767;28;20095;-87
2022/09/04 05:19:48;;;;;;;4.82;3.20;;;11.70;99.90;;;;;;5021860;28;20049;-87
2022/09/04 05:22:32;;;;;;;6.45;3.92;;;11.80;99.90;;;;;;5035832;28;20030;-87
2022/09/04 05:25:10;;;;;;;4.97;3.20;;;11.90;99.90;;;;;;5039058;28;20017;-88
2022/09/04 05:27:57;;;;;;;7.07;4.35;;;12.00;99.90;;;;;;5036161;28;20024;-87
2022/09/04 05:30:39;;;;;;;5.95;3.33;;;12.00;99.90;;;;;;5036614;28;20033;-87
2022/09/04 05:33:24;;;;;;;;;;;12.10;99.90;;;;;;5038319;28;20092;-87
2022/09/04 05:36:13;;;;;;;5.60;3.00;;;12.10;99.90;;;;;;5034391;28;19911;-87
2022/09/04 05:39:16;;;;;;;5.00;3.15;;;12.20;99.90;;;;;;4996106;28;20048;-87
2022/09/04 05:41:59;;;;;;;6.43;3.22;;;12.20;99.90;;;;;;5037195;28;20029;-87
2022/09/04 05:44:25;;;;;;;4.30;2.90;;;12.20;99.90;;;;;;5036496;28;20021;-87
2022/09/04 05:47:32;;;;;;;5.13;3.15;;;12.20;99.90;;;;;;5038274;28;20056;-87
2022/09/04 05:50:12;;;;;;;4.70;3.10;;;12.30;99.90;;;;;;5025273;28;20029;-86
2022/09/04 05:52:59;;;;;;;5.10;3.30;;;12.30;99.90;;;;;;5042773;28;20026;-86
2022/09/04 05:56:00;;;;;;;4.28;3.13;;;12.30;99.90;;;;;;5043170;28;20098;-86
2022/09/04 05:58:46;;;;;;;4.70;3.13;;;12.40;99.90;;;;;;5008823;28;20033;-86
2022/09/04 06:01:46;;;;;;;5.57;3.60;;;12.30;99.90;;;;;;5042894;28;20115;-87
2022/09/04 06:04:29;;;;;;;6.10;3.33;;;12.30;99.90;;;;;;5045582;28;20064;-87
2022/09/04 06:07:12;;;;;;;5.78;3.75;;;12.20;99.90;;;;;;5045925;28;20024;-86
2022/09/04 06:09:37;;;;;;;4.72;2.88;;;12.20;99.90;;;;;;5047041;28;20030;-87
2022/09/04 06:12:20;;;;;;;4.18;2.60;;;12.10;99.90;;;;;;5042787;28;20032;-87
2022/09/04 06:15:20;;;;;;;3.38;2.30;;;12.10;99.90;;;;;;5044942;28;20017;-86
2022/09/04 06:17:58;;;;;;;4.10;2.55;;;12.20;99.90;;;;;;5043322;28;20049;-86
2022/09/04 06:20:51;;;;;;;3.17;2.15;;;12.20;99.90;;;;;;5044499;28;20032;-86
2022/09/04 06:23:40;;;;;;;3.55;2.30;;;12.30;99.90;;;;;;5044969;28;20108;-86
2022/09/04 06:26:52;;;;;;;4.95;2.25;;;12.40;99.90;;;;;;5030958;28;20037;-86
2022/09/04 06:29:39;;;;;;;2.70;2.00;;;12.50;99.90;;;;;;4963709;28;20080;-86
2022/09/04 06:32:05;;;;;;;3.72;2.88;;;12.60;99.90;;;;;;5042649;28;20021;-86
2022/09/04 06:34:52;;;;;;;3.72;2.35;;;12.60;99.90;;;;;;5041209;28;20044;-86
2022/09/04 06:37:17;;;;;;;4.93;3.13;;;12.70;99.90;;;;;;5043689;28;20084;-86
2022/09/04 06:40:12;;;;;;;3.38;2.28;;;12.70;99.90;;;;;;5042726;28;20489;-86
2022/09/04 06:42:50;;;;;;;3.08;2.03;;;12.70;99.90;;;;;;5042678;28;20029;-86
2022/09/04 06:45:29;;;;;;;3.88;2.70;;;12.80;99.90;;;;;;5041508;28;20017;-86
2022/09/04 06:48:02;;;;;;;3.67;2.45;;;12.80;99.90;;;;;;5039299;28;20409;-86
2022/09/04 06:50:37;;;;;;;3.75;2.40;;;12.80;99.90;;;;;;5040154;28;20071;-86
2022/09/04 06:53:17;;;;;;;3.55;2.50;;;12.80;99.90;;;;;;5038638;28;20032;-86
2022/09/04 06:55:57;;;;;;;3.50;2.47;;;12.80;99.90;;;;;;5040375;28;20112;-86
2022/09/04 06:58:44;;;;;;;3.17;2.13;;;12.90;99.90;;;;;;5057024;28;20047;-85
2022/09/04 07:01:18;;;;;;;3.10;2.33;;;12.80;99.90;;;;;;5055882;28;20026;-86
2022/09/04 07:04:24;;;;;;;4.72;2.45;;;12.80;99.90;;;;;;5048711;22;20040;-71
2022/09/04 07:06:55;;;;;;;3.58;1.92;;;12.90;99.90;;;;;;5000851;28;20037;-71
2022/09/04 07:09:34;;;;;;;5.30;3.13;;;12.90;99.90;;;;;;5053134;28;20032;-71
2022/09/04 07:12:14;;;;;;;7.03;4.13;;;13.00;99.90;;;;;;5054578;28;20385;-70
2022/09/04 07:14:46;;;;;;;7.32;5.78;;;13.10;99.90;;;;;;5054164;28;20031;-71
2022/09/04 07:17:23;;;;;;;6.60;5.03;;;13.20;99.90;;;;;;5054445;28;20499;-71
2022/09/04 07:20:00;;;;;;;6.47;4.50;;;13.30;99.90;;;;;;5054162;28;20029;-71
2022/09/04 07:22:44;;;;;;;7.28;4.50;;;13.40;99.90;;;;;;5053223;28;20538;-71
2022/09/04 07:25:11;;;;;;;5.22;3.72;;;13.40;99.90;;;;;;5055252;28;20074;-72
2022/09/04 07:28:14;;;;;;;8.60;4.65;;;13.50;99.90;;;;;;5054518;28;20501;-72
2022/09/04 07:30:48;;;;;;;4.82;3.60;;;13.60;99.90;;;;;;5054639;28;20100;-72
2022/09/04 07:33:27;;;;;;;5.40;3.42;;;13.70;99.90;;;;;;5055212;28;20411;-72
2022/09/04 07:36:15;;;;;;;4.00;2.65;;;13.70;99.90;;;;;;5054865;28;20028;-72
2022/09/04 07:38:59;;;;;;;4.00;3.05;;;13.80;99.90;;;;;;5054449;28;20024;-72
2022/09/04 07:41:39;;;;;;;3.70;2.97;;;13.90;99.90;;;;;;5054649;28;20370;-72
2022/09/04 07:44:05;;;;;;;4.10;2.97;;;14.00;99.90;;;;;;5054137;28;20033;-72
2022/09/04 07:47:15;;;;;;;3.70;2.38;;;14.10;99.90;;;;;;5054216;28;20096;-72
2022/09/04 07:49:48;;;;;;;3.45;2.15;;;14.20;99.90;;;;;;5038337;28;20037;-72
2022/09/04 07:52:18;;;;;;;3.53;1.58;;;14.20;99.90;;;;;;5054165;28;20039;-72
2022/09/04 07:55:06;;;;;;;3.38;2.03;;;14.30;99.90;;;;;;5054127;28;20388;-72
2022/09/04 07:57:41;;;;;;;2.85;2.13;;;14.30;99.90;;;;;;5053787;28;20025;-72
2022/09/04 08:00:12;;;;;;;3.83;2.25;;;14.40;99.90;;;;;;5054260;28;20116;-72
2022/09/04 08:02:55;;;;;;;3.78;2.17;;;14.50;99.90;;;;;;5053971;28;20437;-72
2022/09/04 08:05:48;;;;;;;3.50;2.10;;;14.50;99.90;;;;;;5053521;28;20045;-72
2022/09/04 08:08:41;;;;;;;5.70;2.40;;;14.60;99.90;;;;;;5053760;28;20025;-72
2022/09/04 08:11:34;;;;;;;3.75;2.90;;;14.70;99.90;;;;;;5054205;28;20013;-72
2022/09/04 08:14:15;;;;;;;3.72;2.63;;;14.80;99.90;;;;;;5053312;28;20457;-72
2022/09/04 08:16:47;;;;;;;3.03;2.00;;;14.90;99.90;;;;;;5054077;28;20465;-72
2022/09/04 08:19:33;;;;;;;6.70;2.80;;;14.90;99.90;;;;;;5053473;28;20025;-72
2022/09/04 08:22:01;;;;;;;3.47;2.35;;;14.90;99.90;;;;;;5053591;28;20029;-72
2022/09/04 08:24:59;;;;;;;5.10;2.80;;;14.90;99.90;;;;;;5053501;28;20029;-72
2022/09/04 08:27:25;;;;;;;3.58;2.47;;;15.00;99.90;;;;;;5053268;28;20481;-72
2022/09/04 08:30:06;;;;;;;3.60;2.63;;;15.20;99.90;;;;;;5053339;28;20029;-72
2022/09/04 08:32:46;;;;;;;5.32;2.65;;;15.40;99.90;;;;;;5053590;28;20091;-72
2022/09/04 08:35:30;;;;;;;4.75;2.70;;;15.50;99.90;;;;;;5053493;28;20079;-72
2022/09/04 08:38:40;;;;;;;3.28;2.17;;;15.60;99.90;;;;;;5053457;28;20499;-72
2022/09/04 08:41:42;;;;;;;2.55;1.80;;;15.80;99.90;;;;;;5051422;28;20044;-72
2022/09/04 08:44:25;;;;;;;2.47;1.60;;;15.90;99.90;;;;;;5052908;28;20043;-73
2022/09/04 08:47:10;;;;;;;2.53;1.38;;;16.10;99.90;;;;;;5053281;28;20025;-73
2022/09/04 08:50:24;;;;;;;3.13;1.52;;;16.20;99.90;;;;;;5053358;28;20053;-73
2022/09/04 08:53:08;;;;;;;1.92;1.20;;;16.40;99.90;;;;;;5053892;28;20029;-73
2022/09/04 08:55:54;;;;;;;1.98;1.30;;;16.60;99.90;;;;;;5053321;28;20032;-73
2022/09/04 08:59:22;;;;;;;2.30;1.45;;;16.80;99.90;;;;;;5052786;28;20021;-73
2022/09/04 09:02:22;;;;;;;2.75;1.48;;;17.00;99.90;;;;;;5051133;28;20102;-73
2022/09/04 09:04:51;;;;;;;3.22;1.08;;;17.10;99.90;;;;;;5005455;28;20053;-73
2022/09/04 09:07:44;;;;;;;1.67;1.08;;;17.20;99.90;;;;;;5053214;28;20062;-73
2022/09/04 09:10:41;;;;;;;2.10;1.08;;;17.30;99.90;;;;;;5053162;28;20017;-73
2022/09/04 09:13:25;;;;;;;1.60;1.00;;;17.50;99.90;;;;;;5052558;28;20045;-73
2022/09/04 09:16:01;;;;;;;1.58;0.85;;;17.60;99.90;;;;;;5053104;28;20029;-73
2022/09/04 09:18:40;;;;;;;1.95;1.00;;;17.80;99.90;;;;;;5053570;28;20021;-73
2022/09/04 09:21:17;;;;;;;1.23;0.88;;;17.90;99.90;;;;;;5053395;28;20025;-73
2022/09/04 09:24:13;;;;;;;1.67;1.10;;;18.10;99.90;;;;;;5052910;28;20037;-73
2022/09/04 09:27:10;;;;;;;1.40;0.90;;;18.20;99.90;;;;;;5053045;28;20025;-72
2022/09/04 09:29:50;;;;;;;2.95;1.08;;;18.30;99.90;;;;;;5052782;28;20033;-73
2022/09/04 09:32:36;;;;;;;2.60;0.90;;;18.40;99.90;;;;;;5055774;28;20070;-73
2022/09/04 09:35:02;;;;;;;1.85;0.90;;;18.40;99.90;;;;;;5056198;28;20047;-73
2022/09/04 09:37:58;;;;;;;2.55;1.00;;;18.60;99.90;;;;;;5056750;28;20033;-73
2022/09/04 09:40:42;;;;;;;1.83;0.90;;;18.60;99.90;;;;;;5055598;28;20017;-73
2022/09/04 09:43:48;;;;;;;2.63;1.10;;;18.70;99.90;;;;;;5056428;28;20135;-73
2022/09/04 09:46:14;;;;;;;1.60;1.10;;;18.90;99.90;;;;;;5056966;28;20353;-74
2022/09/04 09:48:58;;;;;;;2.17;1.00;;;19.10;99.90;;;;;;5056608;28;20087;-74
2022/09/04 09:51:50;;;;;;;2.28;0.80;;;19.20;99.90;;;;;;5056553;28;20021;-74
2022/09/04 09:54:50;;;;;;;1.08;0.68;;;19.30;99.90;;;;;;5037068;28;20029;-74
2022/09/04 09:57:24;;;;;;;1.45;0.90;;;19.50;99.90;;;;;;5044737;28;20504;-74
2022/09/04 10:00:08;;;;;;;1.50;0.80;;;19.60;99.90;;;;;;5056393;28;20496;-74
2022/09/04 10:02:53;;;;;;;1.92;0.90;;;19.70;99.90;;;;;;5056293;28;20017;-74
2022/09/04 10:05:57;;;;;;;1.88;1.02;;;19.80;99.90;;;;;;5056279;28;20047;-74
2022/09/04 10:08:46;;;;;;;5.10;0.85;;;19.90;99.90;;;;;;5056825;28;20021;-74
2022/09/04 10:11:50;;;;;;;2.15;0.98;;;20.00;99.90;;;;;;5056056;28;20381;-74
2022/09/04 10:14:46;;;;;;;1.45;0.85;;;20.00;99.90;;;;;;5056219;28;20128;-73
2022/09/04 10:17:35;;;;;;;2.25;0.90;;;20.00;99.90;;;;;;5056356;28;20025;-72
2022/09/04 10:20:21;;;;;;;2.35;1.00;;;20.10;99.90;;;;;;5055813;28;20048;-73
2022/09/04 10:22:58;;;;;;;1.50;0.80;;;20.20;99.90;;;;;;5056040;28;20079;-72
2022/09/04 10:25:30;;;;;;;1.88;0.90;;;20.20;99.90;;;;;;5055859;28;20100;-72
2022/09/04 10:28:09;;;;;;;1.65;0.90;;;20.10;99.90;;;;;;5055373;28;20047;-72
2022/09/04 10:30:52;;;;;;;1.58;0.85;;;20.10;99.90;;;;;;5056171;28;20474;-72
2022/09/04 10:33:25;;;;;;;1.23;0.80;;;20.20;99.90;;;;;;5056007;28;20539;-73
2022/09/04 10:36:44;;;;;;;1.33;0.88;;;20.30;99.90;;;;;;5055627;28;20032;-73
2022/09/04 10:42:33;;;;;;;1.75;0.90;;;20.60;99.90;;;;;;5055430;28;20111;-73
2022/09/04 10:45:08;;;;;;;2.10;1.10;;;20.50;99.90;;;;;;5055501;28;20025;-73
2022/09/04 10:47:51;;;;;;;3.63;1.00;;;20.50;99.90;;;;;;5055534;28;20017;-73
2022/09/04 10:50:20;;;;;;;1.20;0.80;;;20.50;99.90;;;;;;5055532;28;20025;-73
2022/09/04 10:53:12;;;;;;;1.30;0.90;;;20.50;99.90;;;;;;5055396;28;20052;-73
2022/09/04 10:55:56;;;;;;;1.60;1.00;;;20.60;99.90;;;;;;5039274;28;20045;-73
2022/09/04 10:58:38;;;;;;;1.30;0.90;;;20.70;99.90;;;;;;5055322;28;20366;-73
2022/09/04 11:01:22;;;;;;;2.95;1.05;;;20.80;99.90;;;;;;5054016;28;20025;-73
2022/09/04 11:04:26;;;;;;;2.20;1.17;;;21.00;99.90;;;;;;5055185;28;20024;-73
2022/09/04 11:07:09;;;;;;;1.83;1.20;;;21.20;99.90;;;;;;5055161;28;20028;-72
2022/09/04 11:10:06;;;;;;;2.38;1.00;;;21.40;99.90;;;;;;5055323;28;20120;-73
2022/09/04 11:12:38;;;;;;;2.03;1.00;;;21.50;99.90;;;;;;5055370;28;20025;-73
2022/09/04 11:15:13;;;;;;;1.40;1.00;;;21.40;99.80;;;;;;5055043;28;20048;-73
2022/09/04 11:18:11;;;;;;;1.80;1.10;;;21.40;99.90;;;;;;5054997;28;20074;-73
2022/09/04 11:20:45;;;;;;;2.80;1.00;;;21.40;99.90;;;;;;5055204;28;20028;-72
2022/09/04 11:23:43;;;;;;;2.08;1.08;;;21.30;99.90;;;;;;5054759;28;20102;-72
2022/09/04 11:26:38;;;;;;;1.92;1.27;;;21.30;99.90;;;;;;5035170;28;20386;-73
2022/09/04 11:29:40;;;;;;;2.60;1.45;;;21.20;99.90;;;;;;5035136;28;20083;-73
2022/09/04 11:32:42;;;;;;;3.42;1.42;;;21.20;99.90;;;;;;5034412;28;20053;-72
2022/09/04 11:35:20;;;;;;;1.65;1.02;;;21.20;99.90;;;;;;5034619;28;20065;-72
2022/09/04 11:38:09;;;;;;;2.28;1.30;;;21.10;99.90;;;;;;5035285;28;20108;-72
2022/09/04 11:40:55;;;;;;;1.98;1.20;;;21.20;99.90;;;;;;5054825;28;20492;-72
2022/09/04 11:43:24;;;;;;;1.77;1.08;;;21.10;99.90;;;;;;5054592;28;20108;-72
2022/09/04 11:46:08;;;;;;;1.45;1.00;;;21.20;99.90;;;;;;5053434;28;20358;-73
2022/09/04 11:49:09;;;;;;;1.67;1.10;;;21.20;99.90;;;;;;5054657;28;20029;-73
2022/09/04 11:52:14;;;;;;;1.88;1.20;;;21.30;99.90;;;;;;5052964;28;20055;-73
2022/09/04 11:55:10;;;;;;;2.13;1.10;;;21.30;99.90;;;;;;5053667;28;20123;-72
2022/09/04 11:57:50;;;;;;;2.72;1.40;;;21.40;99.90;;;;;;5054500;28;20103;-72
2022/09/04 12:00:17;;;;;;;2.00;1.17;;;21.30;99.90;;;;;;5054747;28;20025;-72
2022/09/04 12:02:49;;;;;;;1.67;1.10;;;21.40;99.90;;;;;;5054580;28;20094;-72
2022/09/04 12:05:39;;;;;;;1.88;1.30;;;21.30;99.90;;;;;;5053911;28;20025;-70
2022/09/04 12:08:20;;;;;;;2.30;1.40;;;21.40;99.90;;;;;;5047188;28;20032;-70
2022/09/04 12:11:18;;;;;;;2.05;1.48;;;21.40;98.90;;;;;;5047598;28;20075;-70
2022/09/04 12:14:18;;;;;;;2.22;1.30;;;21.40;99.80;;;;;;5052090;28;20499;-69
2022/09/04 12:17:05;;;;;;;2.05;1.25;;;21.40;99.10;;;;;;5052164;28;20174;-69
2022/09/04 12:20:03;;;;;;;2.05;1.30;;;21.50;98.90;;;;;;5049245;28;20033;-69
2022/09/04 12:22:37;;;;;;;1.88;1.20;;;21.90;99.90;;;;;;5052662;28;20065;-69
2022/09/04 12:25:10;;;;;;;2.13;1.33;;;22.20;98.30;;;;;;5052488;28;20108;-71
2022/09/04 12:27:53;;;;;;;2.67;1.38;;;22.40;98.00;;;;;;5052624;28;20051;-72
2022/09/04 12:30:32;;;;;;;2.13;1.48;;;22.60;98.20;;;;;;5053493;28;20485;-72
2022/09/04 12:33:24;;;;;;;2.38;1.10;;;22.80;99.40;;;;;;5053185;28;20037;-72
2022/09/04 12:36:17;;;;;;;2.80;1.42;;;23.00;97.60;;;;;;5042959;28;20084;-72
2022/09/04 12:39:20;;;;;;;3.20;1.20;;;23.20;99.00;;;;;;5048910;28;20037;-71
2022/09/04 12:42:13;;;;;;;2.00;1.30;;;23.40;97.20;;;;;;5047296;28;20025;-72
2022/09/04 12:44:54;;;;;;;2.47;1.20;;;23.60;97.60;;;;;;5052796;28;20098;-72
2022/09/04 12:47:50;;;;;;;3.53;1.48;;;23.80;96.60;;;;;;5051733;28;20024;-72
2022/09/04 12:50:38;;;;;;;1.92;1.30;;;24.00;96.50;;;;;;5048745;28;20040;-72
2022/09/04 12:53:24;;;;;;;1.92;1.20;;;24.30;96.80;;;;;;5052601;28;20039;-71
2022/09/04 12:56:17;;;;;;;1.85;1.17;;;24.30;94.00;;;;;;5048883;28;20021;-72
2022/09/04 12:58:55;;;;;;;2.92;1.20;;;24.40;95.50;;;;;;5053094;28;20025;-72
2022/09/04 13:01:55;;;;;;;3.03;1.10;;;24.40;93.90;;;;;;5051918;28;20025;-71
2022/09/04 13:04:46;;;;;;;2.73;1.60;;;24.10;92.10;;;;;;5052659;28;20035;-71
2022/09/04 13:07:41;;;;;;;2.75;1.63;;;23.70;93.10;;;;;;5051750;28;20290;-71
2022/09/04 13:10:27;;;;;;;2.72;1.40;;;23.40;93.70;;;;;;5057246;28;20025;-71
2022/09/04 13:13:19;;;;;;;3.47;1.30;;;23.30;92.70;;;;;;5050083;28;20159;-69
2022/09/04 13:15:53;;;;;;;3.80;1.50;;;23.30;93.10;;;;;;5056880;28;20485;-70
2022/09/04 13:18:33;;;;;;;2.38;1.30;;;23.30;93.00;;;;;;5057273;28;20397;-70
2022/09/04 13:21:08;;;;;;;4.15;1.23;;;23.20;92.60;;;;;;5056510;28;20024;-70
2022/09/04 13:23:40;;;;;;;2.45;1.30;;;23.10;92.80;;;;;;5054173;28;20028;-72
2022/09/04 13:26:30;;;;;;;1.75;1.17;;;23.00;92.90;;;;;;5048753;28;20059;-71
2022/09/04 13:29:02;;;;;;;2.33;1.15;;;22.90;93.50;;;;;;5056774;28;20043;-71
2022/09/04 13:31:37;;;;;;;2.83;1.38;;;22.80;93.80;;;;;;5056040;28;20025;-71
2022/09/04 13:34:46;;;;;;;2.65;1.08;;;22.70;93.50;;;;;;5050228;28;20024;-71
2022/09/04 13:37:37;;;;;;;2.67;1.35;;;22.60;91.70;;;;;;5055893;28;20520;-71
2022/09/04 13:40:12;;;;;;;2.25;1.00;;;22.60;92.30;;;;;;5056638;28;20029;-70
2022/09/04 13:42:53;;;;;;;2.47;1.30;;;22.70;90.80;;;;;;5056776;28;20446;-71
2022/09/04 13:45:24;;;;;;;4.00;1.77;;;22.90;92.30;;;;;;5056232;28;20020;-71
2022/09/04 13:48:00;;;;;;;;;;;23.20;92.10;;;;;;5056265;28;20079;-70
2022/09/04 13:50:35;;;;;;;3.25;1.30;;;23.50;92.00;;;;;;5055365;28;20281;-71
2022/09/04 13:53:29;;;;;;;1.63;1.10;;;23.80;91.00;;;;;;5056231;28;20029;-70
2022/09/04 13:56:02;;;;;;;3.35;1.27;;;23.80;90.00;;;;;;5056065;28;20025;-70
2022/09/04 13:58:39;;;;;;;2.25;1.20;;;23.80;91.70;;;;;;5055404;28;20068;-70
2022/09/04 14:01:15;;;;;;;4.10;1.40;;;23.70;90.10;;;;;;5056260;28;20032;-70
2022/09/04 14:04:06;;;;;;;2.00;1.20;;;23.50;90.20;;;;;;5055538;28;20032;-71
2022/09/04 14:06:35;;;;;;;1.30;0.88;;;23.40;90.30;;;;;;5053064;28;20028;-71
2022/09/04 14:09:03;;;;;;;2.30;1.10;;;23.20;91.50;;;;;;5055413;28;20468;-71
2022/09/04 14:11:56;;;;;;;2.65;1.30;;;23.10;91.20;;;;;;5054838;28;20041;-71
2022/09/04 14:14:41;;;;;;;1.95;1.10;;;23.00;91.80;;;;;;5055187;28;20406;-69
2022/09/04 14:17:08;;;;;;;1.35;0.90;;;22.90;91.60;;;;;;5055467;28;20579;-70
2022/09/04 14:19:42;;;;;;;1.80;1.20;;;22.80;91.30;;;;;;5055927;28;20048;-71
2022/09/04 14:22:16;;;;;;;2.22;1.40;;;22.90;91.50;;;;;;5054915;28;20024;-70